BLACK BUTTE (BLB)

Elevation: 426' · STONY CR basin · Operator: US Army Corps of Engineers

Provisional data, subject to change.
Query executed Wednesday at 7:28:34   clock

Select a sensor type for a plot of data.
Note: Reservoir Flows are daily averages.

Earlier

Date RES ELE    STORAGE    RES CHG    TOC STO    OUTFLOW    INFLOW    PPT INC    TEMP MN    TEMP MX    EVP PAN   
 FEET   AF   AF   AF   CFS   CFS   INCHES   DEG F   DEG F   INCHES  
07/21/2014 452.40 60104 -701 136200 335 -4 0.00 18 29 0.16
07/22/2014 452.15 59409 -695 136200 318 -8 0.00 17 31 0.27
07/23/2014 451.93 58802 -607 136200 277 -9 0.00 15 30 0.22
07/24/2014 451.73 58254 -548 136200 242 -- -- 21 24 --
07/25/2014 451.57 57819 -435 136200 183 -- -- -- -- --
07/26/2014 451.44 57467 -352 136200 145 -16 -- 36 38 0.19
07/27/2014 451.34 57197 -270 136200 120 -- -- -- -- --
07/28/2014 451.27 57008 -189 136200 48 -15 -- 25 37 0.38
07/29/2014 451.25 56955 -53 136200 16 18 0.00 20 38 0.32
07/30/2014 451.22 56874 -81 136200 13 2 0.00 23 39 0.34
07/31/2014 451.08 56499 -375 136200 177 21 0.00 24 40 0.36
08/01/2014 450.87 55941 -558 136200 254 3 0.00 22 41 0.34
08/02/2014 450.63 55306 -635 136200 297 6 0.00 19 38 0.32
08/03/2014 450.38 54651 -655 136200 305 1 0.00 18 33 0.29
08/04/2014 450.12 53975 -676 136200 316 -6 0.00 20 32 0.21
08/05/2014 449.91 53434 -541 136200 286 18 0.06 20 25 0.06
08/06/2014 449.72 52947 -487 136200 225 -5 0.02 21 33 0.18
08/07/2014 449.59 52615 -332 136200 150 7 0.06 21 37 0.28
08/08/2014 449.47 52311 -304 136200 133 4 0.00 20 36 0.28
08/09/2014 449.35 52007 -304 136200 136 8 0.00 20 36 0.30
08/10/2014 449.27 51806 -201 136200 80 2 0.00 16 35 0.28
08/11/2014 449.23 51705 -101 136200 23 -3 0.00 21 36 0.30
08/12/2014 449.20 51630 -75 136200 10 -3 0.00 18 32 0.29
08/13/2014 449.18 51579 -51 136200 10 6 0.00 15 31 0.26
08/14/2014 449.06 51279 -300 136200 167 38 0.00 18 33 0.27
08/15/2014 448.83 50706 -573 136200 272 7 0.00 18 36 0.28
08/16/2014 448.58 50088 -618 136200 289 2 0.00 18 37 0.29
08/17/2014 448.32 49451 -637 136200 311 14 0.00 17 37 0.28
08/18/2014 448.06 48818 -633 136200 304 9 0.00 18 36 0.28
08/19/2014 447.81 48214 -604 136200 -- -- -- -- -- --
08/20/2014 -- -- -- -- -- -- -- -- -- --

Later | Latest

Warning! This data is preliminary and subject to revision.

Download Data Now Download Data Now | Show BLB Map | Plot BLB Data | 1 Month BLB Data | Real-Time BLB Data | BLB Info